createdAt,value
2023-01-17T00:00:02.048Z,2.83
2023-01-17T00:05:01.786Z,2.88
2023-01-17T00:10:01.544Z,2.83
2023-01-17T00:15:01.590Z,2.89
2023-01-17T00:20:01.608Z,2.88
2023-01-17T00:25:01.828Z,2.85
2023-01-17T00:30:01.830Z,2.82
2023-01-17T00:35:01.692Z,2.79
2023-01-17T00:40:01.912Z,2.79
2023-01-17T00:45:02.128Z,2.75
2023-01-17T00:50:02.236Z,2.8
2023-01-17T00:55:02.231Z,2.87
2023-01-17T01:00:02.270Z,2.88
2023-01-17T01:05:01.665Z,2.89
2023-01-17T01:10:01.921Z,2.84
2023-01-17T01:15:01.868Z,2.86
2023-01-17T01:20:02.198Z,2.81
2023-01-17T01:25:02.138Z,2.8
2023-01-17T01:30:02.190Z,2.75
2023-01-17T01:35:01.285Z,2.68
2023-01-17T01:40:01.670Z,2.5
2023-01-17T01:45:01.962Z,2.46
2023-01-17T01:50:02.177Z,2.42
2023-01-17T01:55:01.978Z,2.38
2023-01-17T02:00:01.986Z,2.43
2023-01-17T02:05:04.402Z,2.44
2023-01-17T02:10:02.213Z,2.31
2023-01-17T02:15:01.442Z,2.22
2023-01-17T02:20:01.872Z,2.27
2023-01-17T02:25:01.950Z,2.36
2023-01-17T02:30:02.229Z,2.26
2023-01-17T02:35:01.753Z,2.17
2023-01-17T02:40:01.929Z,2.12
2023-01-17T02:45:01.864Z,2.1
2023-01-17T02:50:01.977Z,2.03
2023-01-17T02:55:02.093Z,1.85
2023-01-17T03:00:02.137Z,1.84
2023-01-17T03:05:02.080Z,1.9
2023-01-17T03:10:01.420Z,1.98
2023-01-17T03:15:01.718Z,1.99
2023-01-17T03:20:01.941Z,2
2023-01-17T03:25:02.009Z,2.08
2023-01-17T03:30:01.371Z,2.09
2023-01-17T03:35:01.696Z,2.13
2023-01-17T03:40:01.659Z,2.12
2023-01-17T03:45:02.117Z,2.15
2023-01-17T03:50:02.038Z,2.19
2023-01-17T03:55:02.201Z,2.16
2023-01-17T04:00:01.504Z,2.19
2023-01-17T04:05:01.879Z,2.17
2023-01-17T04:10:01.544Z,2.21
2023-01-17T04:15:01.696Z,2.14
2023-01-17T04:20:02.010Z,2.07
2023-01-17T04:25:02.066Z,1.96
2023-01-17T04:30:02.070Z,1.77
2023-01-17T04:35:01.324Z,1.86
2023-01-17T04:40:01.741Z,1.81
2023-01-17T04:45:01.781Z,1.78
2023-01-17T04:50:02.126Z,1.76
2023-01-17T04:55:01.301Z,1.71
2023-01-17T05:00:01.751Z,1.67
2023-01-17T05:05:01.846Z,1.67
2023-01-17T05:10:02.190Z,1.6
2023-01-17T05:15:02.115Z,1.46
2023-01-17T05:20:02.321Z,1.32
2023-01-17T05:25:02.154Z,1.24
2023-01-17T05:30:02.068Z,1.18
2023-01-17T05:35:01.364Z,1.06
2023-01-17T05:40:01.731Z,0.91
2023-01-17T05:45:02.100Z,0.78
2023-01-17T05:50:02.155Z,0.68
2023-01-17T05:55:02.226Z,0.59
2023-01-17T06:00:01.597Z,0.46
2023-01-17T06:05:03.544Z,0.44
2023-01-17T06:10:01.726Z,0.44
2023-01-17T06:15:01.651Z,0.52
2023-01-17T06:20:01.920Z,0.61
2023-01-17T06:25:02.415Z,0.67
2023-01-17T06:30:01.783Z,0.69
2023-01-17T06:35:01.857Z,0.75
2023-01-17T06:40:02.123Z,0.65
2023-01-17T06:45:01.665Z,0.62
2023-01-17T06:50:01.991Z,0.59
2023-01-17T06:55:01.375Z,0.63
2023-01-17T07:00:01.936Z,0.68
2023-01-17T07:05:01.432Z,0.76
2023-01-17T07:10:01.459Z,0.79
2023-01-17T07:15:01.837Z,0.83
2023-01-17T07:20:01.914Z,0.91
2023-01-17T07:25:01.364Z,0.95
2023-01-17T07:30:01.832Z,0.94
2023-01-17T07:35:02.035Z,0.93
2023-01-17T07:40:02.295Z,0.89
2023-01-17T07:45:02.082Z,0.88
2023-01-17T07:50:01.939Z,0.83
2023-01-17T07:55:02.017Z,0.73
2023-01-17T08:00:01.305Z,0.64
2023-01-17T08:05:02.173Z,0.51
2023-01-17T08:10:01.797Z,0.53
2023-01-17T08:15:02.267Z,0.52
2023-01-17T08:20:01.923Z,0.54
2023-01-17T08:25:01.754Z,0.5
2023-01-17T08:30:02.211Z,0.43
2023-01-17T08:35:01.566Z,0.44
2023-01-17T08:40:01.963Z,0.49
2023-01-17T08:45:02.024Z,0.61
2023-01-17T08:50:01.326Z,0.71
2023-01-17T08:55:01.710Z,0.83
2023-01-17T09:00:01.955Z,0.93
2023-01-17T09:05:01.654Z,1.1
2023-01-17T09:10:02.245Z,1.39
2023-01-17T09:15:01.361Z,1.56
2023-01-17T09:20:01.820Z,1.67
2023-01-17T09:25:02.118Z,1.82
2023-01-17T09:30:01.368Z,1.84
2023-01-17T09:35:01.866Z,1.83
2023-01-17T09:40:02.007Z,1.8
2023-01-17T09:45:01.355Z,1.81
2023-01-17T09:50:01.849Z,1.88
2023-01-17T09:55:02.257Z,2.01
2023-01-17T10:00:03.823Z,2.13
2023-01-17T10:05:02.242Z,2.07
2023-01-17T10:10:01.301Z,1.92
2023-01-17T10:15:01.869Z,1.91
2023-01-17T10:20:02.275Z,1.82
2023-01-17T10:25:01.395Z,1.75
2023-01-17T10:30:01.831Z,1.68
2023-01-17T10:35:02.174Z,1.6
2023-01-17T10:40:01.430Z,1.69
2023-01-17T10:45:02.042Z,1.84
2023-01-17T10:50:01.426Z,2.11
2023-01-17T10:55:01.805Z,2.21
2023-01-17T11:00:02.044Z,2.41
2023-01-17T11:05:01.350Z,2.46
2023-01-17T11:10:02.178Z,2.57
2023-01-17T11:15:02.258Z,2.69
2023-01-17T11:20:01.335Z,2.66
2023-01-17T11:25:01.876Z,2.74
2023-01-17T11:30:02.181Z,2.75
2023-01-17T11:35:02.174Z,2.85
2023-01-17T11:40:01.371Z,3.02
2023-01-17T11:45:01.863Z,3.02
2023-01-17T11:50:01.840Z,3.08
2023-01-17T11:55:02.122Z,3.11
2023-01-17T12:00:02.288Z,3.04
2023-01-17T12:05:02.016Z,2.99
2023-01-17T12:10:01.528Z,2.84
2023-01-17T12:15:01.585Z,2.82
2023-01-17T12:20:02.276Z,2.83
2023-01-17T12:25:01.615Z,2.8
2023-01-17T12:30:02.224Z,2.78
2023-01-17T12:35:01.776Z,2.8
2023-01-17T12:40:02.080Z,2.89
2023-01-17T12:45:01.343Z,2.93
2023-01-17T12:50:01.884Z,2.93
2023-01-17T12:55:01.969Z,2.82
2023-01-17T13:00:02.268Z,2.74
2023-01-17T13:05:01.435Z,2.75
2023-01-17T13:10:01.288Z,2.82
2023-01-17T13:15:01.667Z,3
2023-01-17T13:20:01.411Z,3.08
2023-01-17T13:25:02.120Z,3.26
2023-01-17T13:30:01.565Z,3.35
2023-01-17T13:35:01.937Z,3.46
2023-01-17T13:40:02.060Z,3.53
2023-01-17T13:45:02.201Z,3.6
2023-01-17T13:50:01.542Z,3.54
2023-01-17T13:55:02.033Z,3.53
2023-01-17T14:00:01.387Z,3.45
2023-01-17T14:05:02.316Z,3.45
2023-01-17T14:10:02.243Z,3.47
2023-01-17T14:15:02.228Z,3.41
2023-01-17T14:20:01.602Z,3.34
2023-01-17T14:25:02.095Z,3.18
2023-01-17T14:30:02.547Z,3.21
2023-01-17T14:35:02.146Z,3.2
2023-01-17T14:40:01.832Z,3.16
2023-01-17T14:45:01.727Z,3.14
2023-01-17T14:50:02.004Z,3.16
2023-01-17T14:55:02.279Z,3.16
2023-01-17T15:00:01.337Z,3.12
2023-01-17T15:05:01.832Z,2.98
2023-01-17T15:10:01.553Z,2.87
2023-01-17T15:15:01.482Z,2.87
2023-01-17T15:20:02.133Z,2.65
2023-01-17T15:25:02.216Z,2.4
2023-01-17T15:30:01.836Z,2.19
2023-01-17T15:35:01.528Z,2.1
2023-01-17T15:40:01.766Z,1.97
2023-01-17T15:45:02.096Z,1.94
2023-01-17T15:50:01.356Z,1.91
2023-01-17T15:55:01.612Z,1.91
2023-01-17T16:00:01.994Z,1.93
2023-01-17T16:05:01.448Z,1.8
2023-01-17T16:10:02.146Z,1.84
2023-01-17T16:15:12.337Z,1.78
2023-01-17T16:20:01.795Z,1.72
2023-01-17T16:25:01.989Z,1.72
2023-01-17T16:30:02.298Z,1.49
2023-01-17T16:35:01.777Z,1.45
2023-01-17T16:40:02.235Z,1.54
2023-01-17T16:45:01.278Z,1.53
2023-01-17T16:50:01.696Z,1.36
2023-01-17T16:55:01.806Z,0.94
2023-01-17T17:00:02.143Z,0.54
2023-01-17T17:05:01.477Z,0.3
2023-01-17T17:10:01.925Z,0.18
2023-01-17T17:15:01.963Z,0.07
2023-01-17T17:20:01.454Z,-0.16
2023-01-17T17:25:01.805Z,-0.43
2023-01-17T17:30:01.977Z,-0.52
2023-01-17T17:35:01.344Z,-0.5
2023-01-17T17:40:01.793Z,-0.57
2023-01-17T17:45:02.096Z,-0.58
2023-01-17T17:50:01.319Z,-0.6
2023-01-17T17:55:01.930Z,-0.68
2023-01-17T18:00:02.033Z,-0.56
2023-01-17T18:05:02.381Z,-0.61
2023-01-17T18:10:01.812Z,-0.69
2023-01-17T18:15:01.479Z,-0.87
2023-01-17T18:20:01.455Z,-0.96
2023-01-17T18:25:01.431Z,-0.97
2023-01-17T18:30:01.312Z,-1.04
2023-01-17T18:35:01.798Z,-1.15
2023-01-17T18:40:02.225Z,-1.21
2023-01-17T18:45:01.653Z,-1.34
2023-01-17T18:50:02.071Z,-1.31
2023-01-17T18:55:02.133Z,-1.34
2023-01-17T19:00:02.255Z,-1.41
2023-01-17T19:05:01.810Z,-1.3
2023-01-17T19:10:02.168Z,-1.33
2023-01-17T19:15:01.723Z,-1.33
2023-01-17T19:20:01.351Z,-1.34
2023-01-17T19:25:01.739Z,-1.38
2023-01-17T19:30:02.072Z,-1.42
2023-01-17T19:35:01.734Z,-1.43
2023-01-17T19:40:02.218Z,-1.42
2023-01-17T19:45:01.595Z,-1.49
2023-01-17T19:50:02.069Z,-1.48
2023-01-17T19:55:02.230Z,-1.4
2023-01-17T20:00:01.492Z,-1.31
2023-01-17T20:05:01.837Z,-1.44
2023-01-17T20:10:02.220Z,-1.47
2023-01-17T20:15:01.784Z,-1.61
2023-01-17T20:20:02.200Z,-1.69
2023-01-17T20:25:01.479Z,-1.72
2023-01-17T20:30:18.605Z,-1.79
2023-01-17T20:35:02.206Z,-1.77
2023-01-17T20:40:01.417Z,-1.87
2023-01-17T20:45:01.663Z,-1.92
2023-01-17T20:50:01.907Z,-1.85
2023-01-17T20:55:02.045Z,-1.85
2023-01-17T21:00:01.490Z,-2.05
2023-01-17T21:05:01.979Z,-1.92
2023-01-17T21:10:01.489Z,-2.06
2023-01-17T21:15:01.695Z,-2.07
2023-01-17T21:20:01.879Z,-2.09
2023-01-17T21:25:01.642Z,-2.09
2023-01-17T21:30:01.881Z,-2.1
2023-01-17T21:35:02.367Z,-2.09
2023-01-17T21:40:04.290Z,-2.07
2023-01-17T21:45:02.203Z,-2
2023-01-17T21:50:01.262Z,-2.09
2023-01-17T21:55:01.716Z,-2.06
2023-01-17T22:00:01.608Z,-2.07
2023-01-17T22:05:02.274Z,-2.07
2023-01-17T22:10:01.640Z,-2.1
2023-01-17T22:15:02.087Z,-2.05
2023-01-17T22:20:01.379Z,-1.85
2023-01-17T22:25:01.860Z,-1.94
2023-01-17T22:30:02.123Z,-1.89
2023-01-17T22:35:01.301Z,-1.95
2023-01-17T22:40:01.750Z,-1.72
2023-01-17T22:45:01.884Z,-2.01
2023-01-17T22:50:02.122Z,-1.89
2023-01-17T22:55:01.388Z,-2.01
2023-01-17T23:00:01.843Z,-1.93
2023-01-17T23:05:01.865Z,-1.77
2023-01-17T23:10:02.166Z,-2
2023-01-17T23:15:02.185Z,-2
2023-01-17T23:20:02.242Z,-1.85
2023-01-17T23:25:01.524Z,-2.16
2023-01-17T23:30:01.960Z,-2.17
2023-01-17T23:35:02.071Z,-2.09
2023-01-17T23:40:02.123Z,-2.26
2023-01-17T23:45:02.189Z,-2.33
2023-01-17T23:50:01.549Z,-2.26
2023-01-17T23:55:01.708Z,-2.26
